Time,TemperatureF,DewpointF,PressureIn,WindDirection,WindDirectionDegrees,WindSpeedMPH,WindSpeedGustMPH,Humidity,HourlyPrecipIn,Conditions,Clouds,dailyrainin,SoftwareType,DateUTC
2013-08-18 00:07:00,58.6,55.0,30.17,East,82,0.0,2.0,88,0.00,,,0.00,weatherlink.com 1.10,2013-08-18 05:07:00,
2013-08-18 00:22:00,57.7,55.0,30.17,East,82,0.0,0.0,89,0.00,,,0.00,weatherlink.com 1.10,2013-08-18 05:22:00,
2013-08-18 00:37:00,57.2,54.0,30.17,East,82,0.0,0.0,90,0.00,,,0.00,weatherlink.com 1.10,2013-08-18 05:37:00,
2013-08-18 00:52:00,56.9,54.0,30.17,ENE,78,0.0,0.0,91,0.00,,,0.00,weatherlink.com 1.10,2013-08-18 05:52:00,
2013-08-18 01:07:00,56.8,55.0,30.17,ENE,78,0.0,0.0,92,0.00,,,0.00,weatherlink.com 1.10,2013-08-18 06:07:00,
2013-08-18 01:22:00,56.1,54.0,30.17,ENE,78,0.0,1.0,92,0.00,,,0.00,weatherlink.com 1.10,2013-08-18 06:22:00,
2013-08-18 01:37:00,55.2,53.0,30.17,ENE,78,0.0,0.0,91,0.00,,,0.00,weatherlink.com 1.10,2013-08-18 06:37:00,
2013-08-18 01:52:00,54.8,53.0,30.17,ENE,78,0.0,0.0,93,0.00,,,0.00,weatherlink.com 1.10,2013-08-18 06:52:00,
2013-08-18 02:07:00,54.7,53.0,30.17,ENE,78,0.0,0.0,94,0.00,,,0.00,weatherlink.com 1.10,2013-08-18 07:07:00,
2013-08-18 02:22:00,54.4,53.0,30.17,ENE,78,0.0,0.0,93,0.00,,,0.00,weatherlink.com 1.10,2013-08-18 07:22:00,
2013-08-18 02:37:00,54.2,53.0,30.17,ENE,78,0.0,0.0,94,0.00,,,0.00,weatherlink.com 1.10,2013-08-18 07:37:00,
2013-08-18 02:52:00,54.2,53.0,30.17,ENE,78,0.0,0.0,94,0.00,,,0.00,weatherlink.com 1.10,2013-08-18 07:52:00,
2013-08-18 03:07:00,54.1,53.0,30.17,ENE,78,0.0,0.0,94,0.00,,,0.00,weatherlink.com 1.10,2013-08-18 08:07:00,
2013-08-18 03:22:00,53.8,52.0,30.17,ENE,78,0.0,0.0,94,0.00,,,0.00,weatherlink.com 1.10,2013-08-18 08:22:00,
2013-08-18 03:37:00,53.6,52.0,30.17,ENE,78,0.0,0.0,94,0.00,,,0.00,weatherlink.com 1.10,2013-08-18 08:37:00,
2013-08-18 03:52:00,53.6,52.0,30.17,ENE,78,0.0,0.0,95,0.00,,,0.00,weatherlink.com 1.10,2013-08-18 08:52:00,
2013-08-18 04:07:00,53.3,52.0,30.17,ENE,78,0.0,0.0,95,0.00,,,0.00,weatherlink.com 1.10,2013-08-18 09:07:00,
2013-08-18 04:22:00,53.0,52.0,30.17,ENE,78,0.0,0.0,95,0.00,,,0.00,weatherlink.com 1.10,2013-08-18 09:22:00,
2013-08-18 04:37:00,52.5,51.0,30.17,ENE,78,0.0,0.0,94,0.00,,,0.00,weatherlink.com 1.10,2013-08-18 09:37:00,
2013-08-18 04:53:00,52.3,51.0,30.18,ENE,78,0.0,0.0,95,0.00,,,0.00,weatherlink.com 1.10,2013-08-18 09:53:00,
2013-08-18 05:08:00,52.3,51.0,30.18,North,360,0.0,4.0,96,0.00,,,0.00,weatherlink.com 1.10,2013-08-18 10:08:00,
2013-08-18 05:23:00,52.2,51.0,30.18,North,360,0.0,0.0,95,0.00,,,0.00,weatherlink.com 1.10,2013-08-18 10:23:00,
2013-08-18 05:38:00,51.8,51.0,30.18,North,360,0.0,0.0,95,0.00,,,0.00,weatherlink.com 1.10,2013-08-18 10:38:00,
2013-08-18 05:53:00,51.5,50.0,30.18,North,360,0.0,0.0,95,0.00,,,0.00,weatherlink.com 1.10,2013-08-18 10:53:00,
2013-08-18 06:08:00,51.6,51.0,30.19,North,360,0.0,0.0,96,0.00,,,0.00,weatherlink.com 1.10,2013-08-18 11:08:00,
2013-08-18 06:23:00,51.6,51.0,30.19,North,360,0.0,0.0,96,0.00,,,0.00,weatherlink.com 1.10,2013-08-18 11:23:00,
2013-08-18 06:38:00,51.7,51.0,30.19,North,360,0.0,0.0,96,0.00,,,0.00,weatherlink.com 1.10,2013-08-18 11:38:00,
2013-08-18 06:53:00,52.0,51.0,30.20,North,360,0.0,0.0,96,0.00,,,0.00,weatherlink.com 1.10,2013-08-18 11:53:00,
2013-08-18 07:08:00,52.6,52.0,30.20,North,360,0.0,0.0,97,0.00,,,0.00,weatherlink.com 1.10,2013-08-18 12:08:00,
2013-08-18 07:24:00,53.5,53.0,30.20,North,360,0.0,0.0,97,0.00,,,0.00,weatherlink.com 1.10,2013-08-18 12:24:00,
2013-08-18 07:38:00,54.4,54.0,30.21,North,355,0.0,1.0,98,0.00,,,0.00,weatherlink.com 1.10,2013-08-18 12:38:00,
2013-08-18 07:53:00,55.5,55.0,30.21,North,355,0.0,0.0,98,0.00,,,0.00,weatherlink.com 1.10,2013-08-18 12:53:00,
2013-08-18 08:08:00,56.7,56.0,30.21,North,355,0.0,0.0,98,0.00,,,0.00,weatherlink.com 1.10,2013-08-18 13:08:00,
2013-08-18 08:23:00,58.4,58.0,30.21,North,355,0.0,0.0,98,0.00,,,0.00,weatherlink.com 1.10,2013-08-18 13:23:00,
2013-08-18 08:38:00,60.1,60.0,30.21,North,355,0.0,0.0,98,0.00,,,0.00,weatherlink.com 1.10,2013-08-18 13:38:00,
2013-08-18 08:53:00,62.0,62.0,30.20,North,355,0.0,1.0,99,0.00,,,0.00,weatherlink.com 1.10,2013-08-18 13:53:00,
2013-08-18 09:08:00,64.6,64.0,30.20,North,355,1.0,2.0,99,0.00,,,0.00,weatherlink.com 1.10,2013-08-18 14:08:00,
2013-08-18 09:23:00,66.6,65.0,30.20,North,5,0.0,2.0,94,0.00,,,0.00,weatherlink.com 1.10,2013-08-18 14:23:00,
2013-08-18 09:38:00,68.1,64.0,30.20,North,5,0.0,1.0,86,0.00,,,0.00,weatherlink.com 1.10,2013-08-18 14:38:00,
2013-08-18 09:53:00,69.8,63.0,30.20,North,5,0.0,1.0,80,0.00,,,0.00,weatherlink.com 1.10,2013-08-18 14:53:00,
2013-08-18 10:08:00,71.1,64.0,30.20,North,5,0.0,2.0,78,0.00,,,0.00,weatherlink.com 1.10,2013-08-18 15:08:00,
2013-08-18 10:24:00,72.0,62.0,30.20,North,5,0.0,1.0,70,0.00,,,0.00,weatherlink.com 1.10,2013-08-18 15:24:00,
2013-08-18 10:39:00,73.1,61.0,30.20,NE,50,1.0,3.0,67,0.00,,,0.00,weatherlink.com 1.10,2013-08-18 15:39:00,
2013-08-18 10:54:00,74.1,61.0,30.19,NE,42,3.0,4.0,64,0.00,,,0.00,weatherlink.com 1.10,2013-08-18 15:54:00,
2013-08-18 11:09:00,74.4,60.0,30.19,ESE,103,1.0,5.0,62,0.00,,,0.00,weatherlink.com 1.10,2013-08-18 16:09:00,
2013-08-18 11:24:00,75.1,62.0,30.18,NNW,344,2.0,4.0,64,0.00,,,0.00,weatherlink.com 1.10,2013-08-18 16:24:00,
2013-08-18 11:39:00,76.0,62.0,30.18,North,5,2.0,3.0,62,0.00,,,0.00,weatherlink.com 1.10,2013-08-18 16:39:00,
2013-08-18 11:54:00,76.9,60.0,30.18,NE,50,0.0,4.0,57,0.00,,,0.00,weatherlink.com 1.10,2013-08-18 16:54:00,
2013-08-18 12:09:00,77.5,61.0,30.17,ENE,69,1.0,4.0,57,0.00,,,0.00,weatherlink.com 1.10,2013-08-18 17:09:00,
2013-08-18 12:24:00,78.3,62.0,30.16,ENE,69,0.0,3.0,57,0.00,,,0.00,weatherlink.com 1.10,2013-08-18 17:24:00,
2013-08-18 12:39:00,78.4,62.0,30.16,East,86,1.0,3.0,57,0.00,,,0.00,weatherlink.com 1.10,2013-08-18 17:39:00,
2013-08-18 12:54:00,78.2,60.0,30.16,SSE,165,1.0,3.0,53,0.00,,,0.00,weatherlink.com 1.10,2013-08-18 17:54:00,
2013-08-18 13:09:00,79.1,61.0,30.15,NNE,25,0.0,3.0,55,0.00,,,0.00,weatherlink.com 1.10,2013-08-18 18:09:00,
2013-08-18 13:24:00,79.7,60.0,30.15,East,90,1.0,3.0,52,0.00,,,0.00,weatherlink.com 1.10,2013-08-18 18:24:00,
2013-08-18 13:39:00,79.1,63.0,30.15,SW,229,2.0,4.0,58,0.00,,,0.00,weatherlink.com 1.10,2013-08-18 18:39:00,
2013-08-18 13:54:00,79.0,63.0,30.14,NNW,327,0.0,3.0,58,0.00,,,0.00,weatherlink.com 1.10,2013-08-18 18:54:00,
2013-08-18 14:09:00,78.0,60.0,30.14,North,5,2.0,3.0,54,0.00,,,0.00,weatherlink.com 1.10,2013-08-18 19:09:00,
2013-08-18 14:24:00,79.0,60.0,30.13,SE,142,4.0,7.0,53,0.00,,,0.00,weatherlink.com 1.10,2013-08-18 19:24:00,
2013-08-18 14:39:00,79.6,61.0,30.13,West,265,0.0,3.0,53,0.00,,,0.00,weatherlink.com 1.10,2013-08-18 19:39:00,
2013-08-18 14:54:00,79.8,60.0,30.12,SE,146,1.0,5.0,51,0.00,,,0.00,weatherlink.com 1.10,2013-08-18 19:54:00,
2013-08-18 15:11:00,79.7,60.0,30.12,West,274,0.0,3.0,51,0.00,,,0.00,weatherlink.com 1.10,2013-08-18 20:11:00,
2013-08-18 15:24:00,79.0,59.0,30.12,West,259,3.0,5.0,51,0.00,,,0.00,weatherlink.com 1.10,2013-08-18 20:24:00,
2013-08-18 15:41:00,79.4,60.0,30.11,WSW,255,2.0,4.0,51,0.00,,,0.00,weatherlink.com 1.10,2013-08-18 20:41:00,
2013-08-18 15:54:00,79.7,59.0,30.11,ESE,119,0.0,4.0,50,0.00,,,0.00,weatherlink.com 1.10,2013-08-18 20:54:00,
2013-08-18 16:09:00,79.8,59.0,30.10,East,79,0.0,3.0,50,0.00,,,0.00,weatherlink.com 1.10,2013-08-18 21:09:00,
2013-08-18 16:24:00,79.8,59.0,30.10,West,273,0.0,4.0,50,0.00,,,0.00,weatherlink.com 1.10,2013-08-18 21:24:00,
2013-08-18 16:39:00,79.9,60.0,30.09,WSW,242,0.0,3.0,51,0.00,,,0.00,weatherlink.com 1.10,2013-08-18 21:39:00,
2013-08-18 16:54:00,79.7,60.0,30.09,SE,142,2.0,4.0,51,0.00,,,0.00,weatherlink.com 1.10,2013-08-18 21:54:00,
2013-08-18 17:09:00,80.2,60.0,30.10,West,273,1.0,3.0,51,0.00,,,0.00,weatherlink.com 1.10,2013-08-18 22:09:00,
2013-08-18 17:24:00,80.6,62.0,30.09,SSW,204,1.0,2.0,53,0.00,,,0.00,weatherlink.com 1.10,2013-08-18 22:24:00,
2013-08-18 17:39:00,80.9,62.0,30.10,West,280,2.0,4.0,52,0.00,,,0.00,weatherlink.com 1.10,2013-08-18 22:39:00,
2013-08-18 17:55:00,81.3,61.0,30.10,West,279,2.0,4.0,51,0.00,,,0.00,weatherlink.com 1.10,2013-08-18 22:55:00,
2013-08-18 18:10:00,81.2,64.0,30.10,WSW,250,0.0,1.0,57,0.00,,,0.00,weatherlink.com 1.10,2013-08-18 23:10:00,
2013-08-18 18:24:00,80.7,63.0,30.10,WNW,284,2.0,2.0,55,0.00,,,0.00,weatherlink.com 1.10,2013-08-18 23:24:00,
2013-08-18 18:39:00,80.0,62.0,30.09,West,277,2.0,3.0,55,0.00,,,0.00,weatherlink.com 1.10,2013-08-18 23:39:00,
2013-08-18 18:54:00,79.2,65.0,30.09,West,277,0.0,2.0,62,0.00,,,0.00,weatherlink.com 1.10,2013-08-18 23:54:00,
2013-08-18 19:10:00,78.1,64.0,30.09,West,277,0.0,1.0,63,0.00,,,0.00,weatherlink.com 1.10,2013-08-19 00:10:00,
2013-08-18 19:25:00,76.4,64.0,30.09,West,277,0.0,0.0,66,0.00,,,0.00,weatherlink.com 1.10,2013-08-19 00:25:00,
2013-08-18 19:40:00,74.4,64.0,30.09,West,277,0.0,1.0,70,0.00,,,0.00,weatherlink.com 1.10,2013-08-19 00:40:00,
2013-08-18 19:55:00,72.0,63.0,30.09,West,277,0.0,1.0,74,0.00,,,0.00,weatherlink.com 1.10,2013-08-19 00:55:00,
2013-08-18 20:10:00,70.3,63.0,30.09,West,277,0.0,1.0,77,0.00,,,0.00,weatherlink.com 1.10,2013-08-19 01:10:00,
2013-08-18 20:25:00,69.3,63.0,30.09,West,277,0.0,0.0,79,0.00,,,0.00,weatherlink.com 1.10,2013-08-19 01:25:00,
2013-08-18 20:40:00,68.2,62.0,30.10,West,277,0.0,0.0,81,0.00,,,0.00,weatherlink.com 1.10,2013-08-19 01:40:00,
2013-08-18 20:55:00,67.5,62.0,30.10,West,277,0.0,0.0,83,0.00,,,0.00,weatherlink.com 1.10,2013-08-19 01:55:00,
2013-08-18 21:10:00,66.7,62.0,30.11,West,277,0.0,0.0,84,0.00,,,0.00,weatherlink.com 1.10,2013-08-19 02:10:00,
2013-08-18 21:25:00,65.7,61.0,30.11,West,277,0.0,0.0,84,0.00,,,0.00,weatherlink.com 1.10,2013-08-19 02:25:00,
2013-08-18 21:40:00,65.2,60.0,30.11,West,277,0.0,0.0,84,0.00,,,0.00,weatherlink.com 1.10,2013-08-19 02:40:00,
2013-08-18 21:55:00,64.8,60.0,30.11,West,277,0.0,0.0,85,0.00,,,0.00,weatherlink.com 1.10,2013-08-19 02:55:00,
2013-08-18 22:10:00,64.0,60.0,30.11,West,277,0.0,0.0,85,0.00,,,0.00,weatherlink.com 1.10,2013-08-19 03:10:00,
2013-08-18 22:25:00,63.7,60.0,30.11,West,277,0.0,0.0,86,0.00,,,0.00,weatherlink.com 1.10,2013-08-19 03:25:00,
2013-08-18 22:40:00,62.9,59.0,30.10,West,277,0.0,0.0,87,0.00,,,0.00,weatherlink.com 1.10,2013-08-19 03:40:00,
2013-08-18 22:55:00,62.3,58.0,30.11,West,277,0.0,0.0,87,0.00,,,0.00,weatherlink.com 1.10,2013-08-19 03:55:00,
2013-08-18 23:10:00,61.8,58.0,30.11,West,277,0.0,0.0,88,0.00,,,0.00,weatherlink.com 1.10,2013-08-19 04:10:00,
2013-08-18 23:25:00,61.3,58.0,30.11,West,277,0.0,0.0,89,0.00,,,0.00,weatherlink.com 1.10,2013-08-19 04:25:00,
2013-08-18 23:40:00,60.8,58.0,30.11,West,277,0.0,0.0,90,0.00,,,0.00,weatherlink.com 1.10,2013-08-19 04:40:00,
2013-08-18 23:55:00,60.4,58.0,30.11,West,277,0.0,0.0,91,0.00,,,0.00,weatherlink.com 1.10,2013-08-19 04:55:00,